Terminal Aerodrome Forecast
Issued by NWS

Home | Current Version | Previous Version | Text Only | Print | Product List | Glossary On
Versions: 1 2 3 4 5 6 7 8 9 10 11 12 13
203
FTUS46 KPDT 041740
TAFYKM
TAF
KYKM 041740Z 0418/0518 30012G22KT P6SM FEW050 SCT070
     FM050100 30010KT P6SM FEW120=

USA.gov is the U.S. government's official web portal to all federal, state and local government web resources and services.